McAdoo, Texas
Current Conditions -  °F | °C
As of 6:53 AM on Saturday 25 Oct 2014 (Local Time) from KLBB Reporting Station
Clear Clear  
Wind Chill: 12°   Ceiling: Unl
Heat Index: 12°   Visibility: 10mi
Dew Point:   Wind: 8mph
Humidity: 83%   Direction: 250°WSW
Pressure: 30.17"   Gusts: NA
Location:  33.73°N, 101.01°W
Report Text: KLBB 251153Z 25007KT 10SM CLR 12/09 A3017 RMK AO2 SLP180 T01220094 10167 20117 53001 $
Loading
Personal Weather Stations






























Interactive Weather Map
Tropical Storm Tracking
New forecast layout! Learn more

10-Day Weather Forecast

Advertisements
Track Severe Weather on mobile